Time;durP1;ratioP1;P1;durP2;ratioP2;P2;SDS_P1;SDS_P2;PMS_P1;PMS_P2;Temp;Humidity;BMP_temperature;BMP_pressure;BME280_temperature;BME280_humidity;BME280_pressure;Samples;Min_cycle;Max_cycle;Signal;HPM_P1;HPM_P2
2021/06/01 00:01:39;;;;;;;10.43;5.10;;;;;;;18.11;49.77;100618.44;5045893;28;20472;-67
2021/06/01 00:04:07;;;;;;;5.03;4.60;;;;;;;18.17;49.37;100609.22;5045791;28;20072;-67
2021/06/01 00:06:34;;;;;;;5.75;5.15;;;;;;;18.03;49.74;100610.25;5045902;28;20037;-67
2021/06/01 00:09:04;;;;;;;5.28;4.78;;;;;;;17.95;50.12;100612.59;5045699;28;20041;-67
2021/06/01 00:11:31;;;;;;;8.18;4.80;;;;;;;18.07;50.10;100611.72;5046154;28;20119;-67
2021/06/01 00:13:59;;;;;;;15.63;6.63;;;;;;;18.05;50.39;100603.06;5045398;28;20045;-67
2021/06/01 00:16:27;;;;;;;5.75;4.88;;;;;;;18.04;50.12;100614.56;5045418;28;20506;-67
2021/06/01 00:18:54;;;;;;;5.30;4.47;;;;;;;18.04;50.30;100614.56;5046028;28;20033;-67
2021/06/01 00:21:23;;;;;;;6.05;4.90;;;;;;;18.04;49.91;100614.56;5046742;28;20068;-67
2021/06/01 00:23:54;;;;;;;9.02;5.03;;;;;;;18.04;50.35;100619.84;5046762;28;20137;-67
2021/06/01 00:26:21;;;;;;;7.70;5.57;;;;;;;18.05;50.41;100619.72;5046527;28;20090;-67
2021/06/01 00:28:50;;;;;;;7.15;4.95;;;;;;;18.02;50.87;100627.03;5046913;28;20426;-67
2021/06/01 00:31:17;;;;;;;5.20;4.55;;;;;;;17.97;50.65;100629.19;5046633;28;20045;-67
2021/06/01 00:33:44;;;;;;;10.30;5.15;;;;;;;18.00;50.55;100626.28;5047036;28;20099;-68
2021/06/01 00:36:16;;;;;;;6.35;5.28;;;;;;;17.97;50.02;100626.53;5045986;28;20128;-68
2021/06/01 00:38:43;;;;;;;6.28;5.13;;;;;;;17.93;49.82;100623.28;5047091;28;20596;-67
2021/06/01 00:41:10;;;;;;;9.73;5.90;;;;;;;17.89;50.33;100621.81;5050392;28;20068;-68
2021/06/01 00:43:37;;;;;;;6.05;5.38;;;;;;;17.92;49.96;100621.59;5049720;28;20492;-67
2021/06/01 00:46:04;;;;;;;8.27;6.82;;;;;;;17.83;50.01;100626.72;5049664;28;20463;-67
2021/06/01 00:48:31;;;;;;;6.05;5.43;;;;;;;17.78;50.29;100633.16;5049245;28;20061;-68
2021/06/01 00:50:59;;;;;;;6.53;4.80;;;;;;;17.78;50.21;100635.81;5031687;28;20045;-68
2021/06/01 00:53:26;;;;;;;7.13;5.05;;;;;;;17.84;50.28;100633.66;5049397;28;20124;-68
2021/06/01 00:55:53;;;;;;;4.65;4.25;;;;;;;17.79;50.48;100636.66;5044202;28;20098;-68
2021/06/01 00:58:20;;;;;;;4.78;4.38;;;;;;;17.80;50.57;100639.19;5054415;28;20047;-67
2021/06/01 01:01:11;;;;;;;5.55;4.93;;;;;;;17.67;51.12;100630.44;5055701;28;20219;-68
2021/06/01 01:03:39;;;;;;;5.57;4.53;;;;;;;17.69;50.75;100633.84;5049499;28;20533;-67
2021/06/01 01:06:18;;;;;;;7.55;4.80;;;;;;;17.66;51.22;100633.22;5055490;28;20080;-67
2021/06/01 01:08:55;;;;;;;6.88;5.25;;;;;;;17.64;51.19;100633.34;5054899;28;20079;-67
2021/06/01 01:11:22;;;;;;;6.63;5.10;;;;;;;17.61;51.20;100635.34;5055162;28;20052;-68
2021/06/01 01:13:59;;;;;;;7.45;4.82;;;;;;;17.59;51.55;100640.72;5037018;28;20091;-66
2021/06/01 01:16:29;;;;;;;9.45;4.90;;;;;;;17.53;51.73;100639.38;5054142;28;20509;-64
2021/06/01 01:19:11;;;;;;;6.93;5.07;;;;;;;17.44;51.95;100645.31;5055036;28;20041;-66
2021/06/01 01:21:50;;;;;;;4.47;4.07;;;;;;;17.47;52.17;100644.22;5049888;28;20043;-65
2021/06/01 01:24:44;;;;;;;5.68;4.65;;;;;;;17.45;51.91;100646.16;5054893;28;20056;-65
2021/06/01 01:27:26;;;;;;;5.30;4.80;;;;;;;17.39;52.15;100647.44;5055294;28;20049;-66
2021/06/01 01:29:53;;;;;;;5.15;4.65;;;;;;;17.42;51.78;100649.03;5049953;28;20132;-66
2021/06/01 01:32:48;;;;;;;6.97;4.65;;;;;;;17.43;52.38;100648.06;5054948;28;20048;-67
2021/06/01 01:35:17;;;;;;;9.60;5.07;;;;;;;17.43;52.01;100653.34;5021898;28;20049;-67
2021/06/01 01:37:47;;;;;;;5.22;4.72;;;;;;;17.45;52.10;100648.78;5053529;28;20045;-68
2021/06/01 01:40:15;;;;;;;4.85;4.40;;;;;;;17.48;52.36;100645.94;5051638;28;20493;-67
2021/06/01 01:42:47;;;;;;;7.25;4.05;;;;;;;17.43;52.30;100653.34;5048043;28;20212;-68
2021/06/01 01:45:19;;;;;;;4.95;4.45;;;;;;;17.42;52.62;100654.28;5047228;28;20095;-68
2021/06/01 01:50:19;;;;;;;6.13;4.60;;;;;;;17.30;52.94;100645.47;5048921;28;20091;-67
2021/06/01 01:52:47;;;;;;;6.00;5.40;;;;;;;17.29;52.83;100647.25;5048436;28;20037;-68
2021/06/01 01:55:15;;;;;;;7.55;4.88;;;;;;;17.27;53.09;100651.81;5048136;28;20075;-68
2021/06/01 01:57:46;;;;;;;5.95;4.80;;;;;;;17.25;52.75;100656.31;5047672;28;20478;-68
2021/06/01 02:00:16;;;;;;;6.65;4.90;;;;;;;17.28;53.05;100650.84;5047772;28;20041;-67
2021/06/01 02:02:47;;;;;;;7.57;5.03;;;;;;;17.24;53.27;100654.63;5047948;28;20095;-68
2021/06/01 02:05:15;;;;;;;6.28;4.60;;;;;;;17.25;53.14;100653.69;5046634;28;20415;-68
2021/06/01 02:07:43;;;;;;;10.52;4.82;;;;;;;17.24;53.53;100654.63;5047421;28;20120;-68
2021/06/01 02:10:11;;;;;;;6.80;5.18;;;;;;;17.22;53.47;100659.19;5050350;28;20095;-68
2021/06/01 02:12:38;;;;;;;7.88;4.88;;;;;;;17.21;53.67;100648.78;5047731;28;20045;-67
2021/06/01 02:15:08;;;;;;;5.05;4.55;;;;;;;17.19;53.71;100651.50;5047530;28;20049;-67
2021/06/01 02:17:36;;;;;;;6.70;5.32;;;;;;;17.16;53.77;100645.63;5047763;28;20044;-67
2021/06/01 02:20:06;;;;;;;6.68;4.90;;;;;;;17.12;53.88;100646.78;5047682;28;20128;-65
2021/06/01 02:25:24;;;;;;;10.40;6.80;;;;;;;17.09;54.02;100650.47;5047532;28;20403;-67
2021/06/01 02:28:11;;;;;;;7.88;4.88;;;;;;;17.12;53.96;100650.25;5046077;28;20060;-67
2021/06/01 02:30:48;;;;;;;7.63;4.93;;;;;;;17.06;53.95;100653.31;5048560;28;20059;-67
2021/06/01 02:33:19;;;;;;;5.82;5.22;;;;;;;17.09;54.00;100652.25;5047606;28;20048;-69
2021/06/01 02:35:47;;;;;;;8.85;5.13;;;;;;;17.11;53.84;100653.00;5047414;28;20079;-69
2021/06/01 02:38:15;;;;;;;6.95;4.78;;;;;;;17.06;53.86;100641.94;5046881;28;20040;-68
2021/06/01 02:40:44;;;;;;;6.10;4.90;;;;;;;17.04;53.83;100642.03;5047335;28;20043;-68
2021/06/01 02:43:14;;;;;;;6.22;4.63;;;;;;;17.06;53.60;100640.16;5046899;28;20140;-68
2021/06/01 02:45:43;;;;;;;7.28;5.10;;;;;;;17.08;53.95;100638.25;5047352;28;20040;-69
2021/06/01 02:48:12;;;;;;;6.97;5.10;;;;;;;17.01;54.08;100643.09;5046530;28;20068;-68
2021/06/01 02:50:42;;;;;;;5.38;4.30;;;;;;;17.02;53.83;100630.78;5046895;28;20033;-70
2021/06/01 02:53:11;;;;;;;7.05;4.68;;;;;;;17.03;53.83;100633.28;5046943;28;20033;-68
2021/06/01 02:55:39;;;;;;;6.78;4.63;;;;;;;17.03;53.75;100641.19;5046863;28;20136;-69
2021/06/01 02:58:07;;;;;;;5.30;4.80;;;;;;;16.95;53.97;100635.66;5046812;28;20153;-66
2021/06/01 03:00:36;;;;;;;6.43;4.43;;;;;;;16.92;54.36;100629.75;5046669;28;20456;-66
2021/06/01 03:03:07;;;;;;;6.35;4.93;;;;;;;16.91;53.96;100636.81;5046387;28;20491;-66
2021/06/01 03:05:34;;;;;;;4.60;3.75;;;;;;;16.93;53.97;100639.31;5046538;28;20094;-67
2021/06/01 03:08:26;;;;;;;4.45;4.05;;;;;;;16.90;53.79;100645.66;5046548;28;20132;-68
2021/06/01 03:10:59;;;;;;;4.82;3.92;;;;;;;16.83;54.33;100646.19;5046372;28;20499;-68
2021/06/01 03:13:27;;;;;;;7.03;4.73;;;;;;;16.83;54.41;100643.53;5046749;28;20048;-68
2021/06/01 03:15:55;;;;;;;6.28;4.82;;;;;;;16.76;54.65;100641.34;5047045;28;20287;-68
2021/06/01 03:18:22;;;;;;;5.07;4.53;;;;;;;16.77;54.78;100640.38;5047960;28;20047;-68
2021/06/01 03:20:49;;;;;;;5.93;5.13;;;;;;;16.80;54.16;100635.88;5047236;28;20176;-68
2021/06/01 03:23:18;;;;;;;10.07;9.07;;;;;;;16.83;53.84;100639.16;5047494;28;20036;-68
2021/06/01 03:25:45;;;;;;;12.98;7.22;;;;;;;16.76;54.17;100635.25;5049389;28;20071;-68
2021/06/01 03:28:13;;;;;;;7.57;6.10;;;;;;;16.70;54.43;100625.94;5051286;28;20044;-70
2021/06/01 03:30:40;;;;;;;9.30;6.63;;;;;;;16.71;54.58;100634.72;5051806;28;20460;-68
2021/06/01 03:33:07;;;;;;;10.13;6.88;;;;;;;16.73;54.81;100625.78;5052065;28;20483;-70
2021/06/01 03:35:34;;;;;;;10.15;7.65;;;;;;;16.69;54.79;100634.78;5052355;28;20051;-68
2021/06/01 03:38:01;;;;;;;9.73;8.52;;;;;;;16.68;54.62;100635.75;5052909;28;20065;-68
2021/06/01 03:40:28;;;;;;;9.90;7.10;;;;;;;16.71;54.69;100625.03;5052872;28;20080;-67
2021/06/01 03:42:55;;;;;;;13.30;8.07;;;;;;;16.71;54.47;100630.28;5052619;28;20080;-68
2021/06/01 03:45:24;;;;;;;8.23;6.72;;;;;;;16.69;54.46;100632.16;5052793;28;20059;-68
2021/06/01 03:47:51;;;;;;;9.75;7.00;;;;;;;16.68;54.73;100633.13;5052365;28;20037;-67
2021/06/01 03:50:18;;;;;;;8.90;6.90;;;;;;;16.67;54.96;100634.06;5052891;28;20424;-68
2021/06/01 03:52:46;;;;;;;9.68;7.30;;;;;;;16.75;54.77;100639.66;5052566;28;20107;-69
2021/06/01 03:55:15;;;;;;;12.20;7.97;;;;;;;16.82;55.06;100641.88;5049099;28;20456;-69
2021/06/01 03:57:46;;;;;;;11.85;7.78;;;;;;;16.75;55.37;100642.28;5050308;28;20119;-70
2021/06/01 04:00:17;;;;;;;8.30;7.32;;;;;;;16.81;55.25;100642.81;5050265;28;20128;-70
2021/06/01 04:02:44;;;;;;;10.13;7.15;;;;;;;16.80;55.13;100644.63;5052020;28;20442;-69
2021/06/01 04:05:12;;;;;;;15.70;6.63;;;;;;;16.79;55.26;100645.56;5052257;28;20052;-68
2021/06/01 04:07:39;;;;;;;7.63;5.90;;;;;;;16.82;55.43;100641.88;5052322;28;20365;-68
2021/06/01 04:10:07;;;;;;;8.50;5.43;;;;;;;16.87;55.53;100643.22;5052068;28;20081;-69
2021/06/01 04:12:34;;;;;;;11.07;6.15;;;;;;;16.87;55.30;100642.38;5052135;28;20041;-68
2021/06/01 04:15:02;;;;;;;8.32;6.53;;;;;;;16.89;55.67;100640.50;5054590;28;20040;-68
2021/06/01 04:17:29;;;;;;;7.65;6.85;;;;;;;16.87;55.44;100643.22;5056192;28;20124;-68
2021/06/01 04:19:56;;;;;;;9.32;8.48;;;;;;;16.89;55.01;100636.09;5056184;28;20456;-68
2021/06/01 04:22:23;;;;;;;9.93;8.25;;;;;;;16.91;55.15;100630.69;5055933;28;20052;-68
2021/06/01 04:24:50;;;;;;;11.32;8.32;;;;;;;16.94;54.97;100644.50;5055684;28;20045;-67
2021/06/01 04:27:17;;;;;;;9.70;8.02;;;;;;;17.00;54.90;100643.22;5056129;28;20045;-67
2021/06/01 04:29:44;;;;;;;8.57;7.78;;;;;;;16.95;55.07;100645.34;5055340;28;20124;-67
2021/06/01 04:32:11;;;;;;;11.77;8.93;;;;;;;16.97;54.98;100646.06;5055939;28;20507;-67
2021/06/01 04:34:38;;;;;;;11.20;9.00;;;;;;;17.02;54.58;100643.94;5055294;28;20036;-67
2021/06/01 04:37:05;;;;;;;9.65;8.65;;;;;;;17.05;55.02;100642.91;5055753;28;20051;-67
2021/06/01 04:39:32;;;;;;;13.07;8.48;;;;;;;17.13;55.03;100644.03;5053149;28;20047;-67
2021/06/01 04:41:59;;;;;;;11.30;10.07;;;;;;;17.20;55.13;100645.25;5048963;28;20053;-67
2021/06/01 04:44:25;;;;;;;9.48;8.52;;;;;;;17.26;54.71;100650.13;5048871;28;20583;-67
2021/06/01 04:46:52;;;;;;;10.15;9.02;;;;;;;17.31;54.76;100649.81;5048742;28;20069;-67
2021/06/01 04:49:20;;;;;;;10.80;9.70;;;;;;;17.29;54.59;100652.53;5049160;28;20069;-67
2021/06/01 04:51:47;;;;;;;11.18;10.07;;;;;;;17.38;54.65;100650.19;5047622;28;20072;-67
2021/06/01 04:54:14;;;;;;;13.63;12.02;;;;;;;17.57;53.55;100650.53;5049352;28;20110;-68
2021/06/01 04:56:41;;;;;;;12.82;11.18;;;;;;;17.48;53.75;100648.59;5048806;28;20116;-67
2021/06/01 04:59:08;;;;;;;17.10;9.57;;;;;;;17.43;54.24;100648.06;5049181;28;21001;-67
2021/06/01 05:01:34;;;;;;;10.45;9.45;;;;;;;17.50;53.91;100644.03;5048621;28;20591;-69
2021/06/01 05:04:01;;;;;;;16.38;9.23;;;;;;;17.55;54.20;100652.44;5052023;28;20401;-66
2021/06/01 05:06:28;;;;;;;14.90;9.27;;;;;;;17.77;53.63;100651.75;5054835;28;20044;-68
2021/06/01 05:08:55;;;;;;;13.35;10.75;;;;;;;18.23;52.11;100650.97;5055268;28;20565;-71
2021/06/01 05:11:22;;;;;;;12.20;9.13;;;;;;;18.41;51.28;100649.56;5054753;28;20083;-71
2021/06/01 05:13:49;;;;;;;12.57;8.25;;;;;;;18.57;50.84;100651.88;5053590;28;20052;-70
2021/06/01 05:16:16;;;;;;;11.38;9.90;;;;;;;18.69;50.24;100648.31;5054078;28;20149;-67
2021/06/01 05:18:43;;;;;;;9.18;8.27;;;;;;;19.28;49.58;100644.53;5053114;28;20394;-67
2021/06/01 05:21:10;;;;;;;11.65;8.98;;;;;;;19.40;49.40;100642.75;5053825;28;20036;-67
2021/06/01 05:23:37;;;;;;;10.05;7.95;;;;;;;19.92;48.88;100641.13;5054047;28;20064;-66
2021/06/01 05:26:04;;;;;;;11.23;9.73;;;;;;;20.08;48.82;100638.91;5053162;28;20037;-67
2021/06/01 05:28:31;;;;;;;11.60;8.88;;;;;;;19.96;50.22;100634.63;5053820;28;20116;-68
2021/06/01 05:33:33;;;;;;;15.75;9.70;;;;;;;19.96;49.13;100632.00;5043690;28;20046;-67
2021/06/01 05:36:01;;;;;;;12.05;8.52;;;;;;;20.35;48.16;100633.13;5054207;28;20052;-67
2021/06/01 05:38:30;;;;;;;10.23;9.07;;;;;;;20.52;48.03;100629.06;5054049;28;20065;-67
2021/06/01 05:40:58;;;;;;;10.88;8.48;;;;;;;21.13;47.42;100636.97;5054083;28;20076;-72
2021/06/01 05:43:26;;;;;;;16.90;8.18;;;;;;;21.65;45.64;100641.16;5053575;28;20049;-69
2021/06/01 05:45:52;;;;;;;10.48;8.35;;;;;;;21.81;43.96;100635.28;5052627;28;20033;-69
2021/06/01 05:48:19;;;;;;;11.90;8.90;;;;;;;22.08;43.44;100639.06;5052209;28;20119;-69
2021/06/01 05:50:47;;;;;;;11.25;9.30;;;;;;;22.66;42.39;100633.66;5053394;28;20113;-69
2021/06/01 05:53:17;;;;;;;9.95;8.70;;;;;;;22.93;42.03;100633.69;5053325;28;20065;-69
2021/06/01 05:55:45;;;;;;;9.93;8.70;;;;;;;23.06;41.41;100632.50;5034652;28;20124;-69
2021/06/01 05:58:13;;;;;;;10.63;9.52;;;;;;;22.84;42.06;100634.53;5053064;28;20124;-69
2021/06/01 06:00:40;;;;;;;12.07;10.65;;;;;;;22.35;44.07;100628.56;5053717;28;20040;-70
2021/06/01 06:03:07;;;;;;;10.70;9.68;;;;;;;23.09;42.64;100625.09;5036124;28;20373;-68
2021/06/01 06:05:34;;;;;;;13.98;10.88;;;;;;;22.95;43.01;100621.09;5052147;28;20115;-71
2021/06/01 06:08:06;;;;;;;11.35;10.35;;;;;;;23.59;41.54;100619.28;5054120;28;20051;-70
2021/06/01 06:10:33;;;;;;;11.75;9.55;;;;;;;23.92;41.03;100628.47;5053397;28;20052;-65
2021/06/01 06:13:01;;;;;;;10.90;9.00;;;;;;;23.73;41.14;100620.63;5053506;28;20443;-66
2021/06/01 06:15:28;;;;;;;10.80;9.70;;;;;;;23.94;39.81;100629.13;5053496;28;20128;-64
2021/06/01 06:18:11;;;;;;;8.60;7.30;;;;;;;23.99;40.50;100629.50;5051263;28;20099;-65
2021/06/01 06:20:38;;;;;;;8.10;7.40;;;;;;;23.79;40.46;100630.66;5053994;28;20045;-65
2021/06/01 06:23:05;;;;;;;14.63;8.27;;;;;;;24.11;40.40;100619.44;5053275;28;20492;-66
2021/06/01 06:25:32;;;;;;;13.93;6.85;;;;;;;23.76;40.48;100623.84;5052840;28;20072;-65
2021/06/01 06:27:59;;;;;;;8.00;7.20;;;;;;;24.74;39.71;100624.53;5053573;28;20460;-65
2021/06/01 06:30:25;;;;;;;12.00;7.63;;;;;;;24.70;39.23;100625.84;5053789;28;20126;-65
2021/06/01 06:32:52;;;;;;;8.05;7.25;;;;;;;24.89;39.45;100630.09;5052976;28;20080;-65
2021/06/01 06:35:20;;;;;;;9.27;8.38;;;;;;;24.54;39.21;100628.41;5053646;28;20047;-67
2021/06/01 06:37:47;;;;;;;8.82;6.90;;;;;;;24.57;39.95;100620.13;5052556;28;20087;-67
2021/06/01 06:40:15;;;;;;;7.65;6.90;;;;;;;25.47;38.60;100633.81;5052713;28;20060;-70
2021/06/01 06:42:43;;;;;;;8.30;6.25;;;;;;;25.76;36.94;100630.72;5053108;28;20053;-69
2021/06/01 06:45:13;;;;;;;8.73;5.32;;;;;;;25.58;36.88;100631.66;5046780;28;20491;-68
2021/06/01 06:50:22;;;;;;;6.55;5.75;;;;;;;26.66;33.97;100630.66;5053087;28;20033;-68
2021/06/01 06:52:50;;;;;;;11.70;6.22;;;;;;;27.13;32.90;100617.28;5049303;28;20514;-67
2021/06/01 06:55:19;;;;;;;12.27;7.05;;;;;;;26.24;34.24;100618.34;5052358;28;20053;-68
2021/06/01 06:57:46;;;;;;;10.10;6.57;;;;;;;26.88;33.57;100612.00;5053065;28;20036;-67
2021/06/01 07:00:17;;;;;;;14.15;7.90;;;;;;;26.94;33.44;100610.47;5052569;28;20095;-67
2021/06/01 07:02:44;;;;;;;8.85;6.00;;;;;;;27.88;32.20;100606.75;5051543;28;20083;-68
2021/06/01 07:05:16;;;;;;;14.57;8.18;;;;;;;27.20;33.07;100609.38;5034151;28;20380;-68
2021/06/01 07:07:43;;;;;;;14.52;5.10;;;;;;;27.93;32.34;100612.41;5051640;28;20491;-66
2021/06/01 07:10:14;;;;;;;8.38;5.35;;;;;;;28.24;31.77;100611.47;5051577;28;20047;-66
2021/06/01 07:12:43;;;;;;;7.47;5.72;;;;;;;28.82;31.38;100609.84;5052603;28;20044;-68
2021/06/01 07:15:29;;;;;;;7.60;5.30;;;;;;;28.25;31.55;100612.28;5052971;28;20036;-68
2021/06/01 07:18:00;;;;;;;10.63;6.22;;;;;;;28.19;31.97;100613.84;5051928;28;20049;-68
2021/06/01 07:20:31;;;;;;;11.05;5.22;;;;;;;28.94;30.69;100607.53;5052973;28;20077;-68
2021/06/01 07:22:59;;;;;;;13.07;5.22;;;;;;;28.94;30.22;100607.53;5052912;28;20049;-68
2021/06/01 07:25:26;;;;;;;8.45;4.22;;;;;;;29.26;29.25;100616.16;5052134;28;20045;-68
2021/06/01 07:27:53;;;;;;;12.93;4.72;;;;;;;29.29;29.49;100615.75;5052390;28;20041;-67
2021/06/01 07:30:21;;;;;;;10.00;4.53;;;;;;;28.93;27.40;100603.16;5052535;28;20526;-69
2021/06/01 07:32:48;;;;;;;8.88;4.55;;;;;;;29.45;26.64;100602.09;5051605;28;20522;-68
2021/06/01 07:35:16;;;;;;;15.07;5.13;;;;;;;29.06;27.36;100597.13;5052322;28;20055;-69
2021/06/01 07:37:45;;;;;;;12.93;5.28;;;;;;;29.55;27.47;100597.28;5051253;28;20040;-68
2021/06/01 07:40:13;;;;;;;7.55;4.63;;;;;;;28.91;27.77;100592.59;5051772;28;20053;-68
2021/06/01 07:42:40;;;;;;;12.18;5.45;;;;;;;29.50;26.81;100597.81;5051553;28;20573;-69
2021/06/01 07:45:07;;;;;;;7.32;4.30;;;;;;;29.05;28.14;100582.88;5052636;28;20095;-68
2021/06/01 07:47:34;;;;;;;4.53;3.70;;;;;;;29.90;27.38;100595.53;5051117;28;20091;-68
2021/06/01 07:50:04;;;;;;;5.88;5.25;;;;;;;29.66;24.97;100585.19;5052601;28;20047;-68
2021/06/01 07:52:31;;;;;;;9.18;4.80;;;;;;;29.96;25.85;100585.84;5018650;28;20041;-68
2021/06/01 07:54:58;;;;;;;12.07;5.22;;;;;;;29.98;25.43;100579.25;5051728;28;20418;-68
2021/06/01 07:57:25;;;;;;;10.75;4.90;;;;;;;30.66;25.14;100579.50;5052394;28;20061;-68
2021/06/01 07:59:52;;;;;;;8.82;3.97;;;;;;;30.82;25.34;100578.34;5051850;28;20037;-69
2021/06/01 08:02:19;;;;;;;4.72;3.72;;;;;;;30.32;25.77;100579.53;5049287;28;20056;-68
2021/06/01 08:04:46;;;;;;;7.07;4.68;;;;;;;30.30;25.21;100576.19;5049979;28;20445;-68
2021/06/01 08:07:13;;;;;;;7.07;4.82;;;;;;;30.74;24.77;100574.00;5050073;28;20041;-69
2021/06/01 08:09:40;;;;;;;11.50;4.80;;;;;;;30.92;23.70;100570.75;5049252;28;20103;-68
2021/06/01 08:12:08;;;;;;;11.45;4.70;;;;;;;31.03;24.03;100577.41;5050200;28;20043;-68
2021/06/01 08:14:35;;;;;;;14.43;5.25;;;;;;;30.15;24.44;100578.97;5049676;28;20033;-68
2021/06/01 08:17:03;;;;;;;7.82;4.78;;;;;;;30.94;24.54;100578.59;5051463;28;20567;-68
2021/06/01 08:19:33;;;;;;;5.22;4.53;;;;;;;30.57;24.45;100571.78;5034111;28;20033;-67
2021/06/01 08:22:12;;;;;;;10.57;5.10;;;;;;;29.86;24.99;100575.44;5051858;28;20430;-65
2021/06/01 08:24:39;;;;;;;9.60;4.35;;;;;;;30.45;24.55;100568.84;5051669;28;20498;-68
2021/06/01 08:27:06;;;;;;;5.40;3.50;;;;;;;30.82;24.77;100569.47;5051525;28;20491;-68
2021/06/01 08:29:33;;;;;;;6.25;3.75;;;;;;;30.44;24.18;100570.69;5052024;28;20033;-68
2021/06/01 08:32:01;;;;;;;10.77;6.22;;;;;;;30.22;24.20;100567.25;5051847;28;20120;-68
2021/06/01 08:34:29;;;;;;;5.03;3.40;;;;;;;30.44;24.30;100565.31;5051439;28;20033;-68
2021/06/01 08:36:56;;;;;;;6.85;3.65;;;;;;;30.72;24.01;100565.28;5051529;28;20045;-70
2021/06/01 08:39:25;;;;;;;5.97;4.55;;;;;;;30.37;24.45;100566.31;5051555;28;20033;-70
2021/06/01 08:41:53;;;;;;;4.50;3.17;;;;;;;29.65;25.42;100567.41;5032547;28;20554;-70
2021/06/01 08:44:20;;;;;;;5.15;3.47;;;;;;;29.57;24.02;100563.00;5044371;28;20515;-70
2021/06/01 08:46:50;;;;;;;9.23;3.03;;;;;;;29.49;25.26;100555.88;5043943;28;20426;-70
2021/06/01 08:49:18;;;;;;;5.25;3.78;;;;;;;29.59;24.75;100560.97;5042877;28;20037;-71
2021/06/01 08:51:47;;;;;;;7.28;2.83;;;;;;;29.31;24.48;100560.88;5044236;28;20404;-70
2021/06/01 08:54:15;;;;;;;5.68;2.58;;;;;;;29.27;24.42;100564.13;5043789;28;20044;-70
2021/06/01 08:56:44;;;;;;;6.25;3.08;;;;;;;28.58;24.71;100554.63;5044584;28;20163;-67
2021/06/01 08:59:12;;;;;;;5.60;2.90;;;;;;;28.39;24.97;100558.72;5044317;28;20697;-69
2021/06/01 09:01:39;;;;;;;9.88;2.70;;;;;;;27.81;24.67;100554.91;5047901;28;20446;-67
2021/06/01 09:04:08;;;;;;;3.55;2.35;;;;;;;28.49;25.08;100552.22;5048100;28;20039;-69
2021/06/01 09:06:58;;;;;;;7.10;2.33;;;;;;;28.65;25.12;100560.06;5048046;28;20075;-70
2021/06/01 09:09:49;;;;;;;4.53;2.17;;;;;;;28.22;24.99;100557.19;5033140;28;20381;-71
2021/06/01 09:12:34;;;;;;;6.07;2.00;;;;;;;27.59;24.80;100559.25;5046514;28;20051;-70
2021/06/01 09:15:35;;;;;;;5.38;2.25;;;;;;;27.82;24.14;100561.09;5047715;28;20045;-70
2021/06/01 09:21:15;;;;;;;3.42;2.53;;;;;;;27.66;25.47;100560.19;5048910;28;20069;-70
2021/06/01 09:23:57;;;;;;;3.97;1.92;;;;;;;27.31;24.25;100545.56;5047244;28;20037;-70
2021/06/01 09:26:45;;;;;;;4.85;2.78;;;;;;;26.97;25.00;100548.59;5046378;28;20044;-70
2021/06/01 09:29:12;;;;;;;2.70;2.15;;;;;;;26.49;25.31;100555.84;5051638;28;20436;-70
2021/06/01 09:31:40;;;;;;;4.20;1.95;;;;;;;26.76;24.89;100551.88;5054681;28;20510;-70
2021/06/01 09:34:09;;;;;;;3.83;2.30;;;;;;;26.90;24.32;100550.31;5054909;28;20044;-70
2021/06/01 09:36:36;;;;;;;5.95;2.75;;;;;;;27.03;25.87;100545.22;5054415;28;20037;-70
2021/06/01 09:39:07;;;;;;;3.63;2.78;;;;;;;26.96;26.07;100543.44;5055233;28;20048;-70
2021/06/01 09:41:34;;;;;;;7.57;3.10;;;;;;;27.15;26.53;100543.84;5054381;28;20488;-70
2021/06/01 09:44:05;;;;;;;6.82;3.58;;;;;;;27.05;25.96;100539.69;5054292;28;20043;-69
2021/06/01 09:46:37;;;;;;;1.70;1.58;;;;;;;27.03;26.08;100537.19;5054409;28;20124;-70
2021/06/01 09:49:13;;;;;;;2.60;2.40;;;;;;;27.19;25.75;100532.78;5054866;28;20111;-70
2021/06/01 09:51:45;;;;;;;4.43;2.22;;;;;;;27.34;25.93;100528.34;5054024;28;20041;-68
2021/06/01 09:54:28;;;;;;;6.65;2.35;;;;;;;26.98;25.13;100526.19;5054800;28;20099;-70
2021/06/01 09:56:56;;;;;;;3.17;2.22;;;;;;;26.94;24.69;100518.69;5054029;28;20144;-68
2021/06/01 09:59:23;;;;;;;4.13;2.30;;;;;;;26.94;25.09;100522.19;5054068;28;20120;-66
2021/06/01 10:01:49;;;;;;;5.25;1.85;;;;;;;26.72;25.07;100515.81;5053824;28;20120;-66
2021/06/01 10:04:27;;;;;;;3.45;1.92;;;;;;;27.00;25.15;100526.00;5054252;28;20123;-69
2021/06/01 10:06:55;;;;;;;3.10;2.10;;;;;;;26.95;24.53;100523.03;5053425;28;20037;-67
2021/06/01 10:09:22;;;;;;;5.80;1.85;;;;;;;26.77;24.18;100520.63;5052981;28;20558;-68
2021/06/01 10:12:07;;;;;;;2.85;1.60;;;;;;;26.64;23.61;100516.69;5052517;28;20094;-69
2021/06/01 10:14:34;;;;;;;2.22;1.60;;;;;;;26.69;23.27;100521.50;5053991;28;20423;-68
2021/06/01 10:17:09;;;;;;;3.85;2.15;;;;;;;26.41;22.72;100521.09;5053769;28;20506;-68
2021/06/01 10:19:37;;;;;;;5.65;2.42;;;;;;;26.60;23.50;100528.72;5036500;28;20043;-68
2021/06/01 10:22:04;;;;;;;3.83;1.80;;;;;;;26.76;23.00;100519.78;5035473;28;20120;-68
2021/06/01 10:24:31;;;;;;;4.53;1.60;;;;;;;26.96;23.23;100509.50;5053908;28;20033;-68
2021/06/01 10:26:58;;;;;;;1.85;1.70;;;;;;;26.85;23.12;100512.56;5053866;28;20080;-68
2021/06/01 10:29:25;;;;;;;5.32;2.03;;;;;;;26.68;24.52;100510.97;5053553;28;20393;-68
2021/06/01 10:31:52;;;;;;;4.32;1.85;;;;;;;26.68;25.48;100513.66;5054026;28;20132;-68
2021/06/01 10:34:20;;;;;;;10.55;2.28;;;;;;;26.41;25.23;100509.56;5053335;28;20043;-66
2021/06/01 10:51:02;;;;;;;3.53;2.20;;;;;;;26.35;26.26;100495.06;5052856;28;20498;-68
2021/06/01 10:53:41;;;;;;;7.78;2.17;;;;;;;26.36;26.21;100494.88;5053618;28;20124;-68
2021/06/01 10:56:10;;;;;;;2.72;2.45;;;;;;;26.23;25.84;100494.59;5053318;28;20037;-68
2021/06/01 11:04:23;;;;;;;4.78;2.40;;;;;;;25.96;27.42;100495.84;5052649;28;20041;-68
2021/06/01 11:06:54;;;;;;;5.38;2.42;;;;;;;25.95;26.08;100486.16;5052755;28;20057;-68
2021/06/01 11:09:33;;;;;;;6.05;2.45;;;;;;;26.09;26.59;100481.94;5053174;28;20057;-67
2021/06/01 11:12:25;;;;;;;2.95;2.33;;;;;;;26.02;26.64;100483.63;5051800;28;20094;-68
2021/06/01 11:14:55;;;;;;;4.07;2.13;;;;;;;25.80;27.43;100488.69;5052466;28;20045;-70
2021/06/01 11:17:36;;;;;;;5.13;2.25;;;;;;;25.90;27.04;100477.00;5052826;28;20037;-67
2021/06/01 11:20:08;;;;;;;5.07;1.90;;;;;;;25.92;26.41;100483.81;5051921;28;20041;-67
2021/06/01 11:33:42;;;;;;;7.60;3.13;;;;;;;25.85;27.00;100467.66;5052685;28;20518;-71
2021/06/01 11:36:12;;;;;;;6.43;2.58;;;;;;;25.66;27.59;100475.16;5052100;28;20491;-71
2021/06/01 11:44:24;;;;;;;2.65;2.45;;;;;;;25.82;27.99;100459.16;5051463;28;20047;-69
2021/06/01 11:52:05;;;;;;;9.15;3.50;;;;;;;25.74;28.37;100459.16;5051892;28;20561;-68
2021/06/01 11:54:32;;;;;;;4.55;2.75;;;;;;;25.85;28.50;100456.16;5051917;28;20044;-69
2021/06/01 12:19:02;;;;;;;6.30;4.32;;;;;;;25.67;28.57;100439.44;5051130;28;20091;-69
2021/06/01 12:21:36;;;;;;;7.50;3.08;;;;;;;25.71;28.37;100438.13;5050936;28;20063;-69
2021/06/01 12:24:07;;;;;;;;;;;;;;;25.79;28.31;100435.47;5051683;28;20127;-67
2021/06/01 12:32:08;;;;;;;4.40;3.95;;;;;;;25.81;28.00;100425.44;5049375;28;20056;-66
2021/06/01 12:34:51;;;;;;;5.68;3.70;;;;;;;25.80;28.89;100431.78;5050927;28;20132;-68
2021/06/01 13:13:14;;;;;;;6.10;3.70;;;;;;;25.55;30.23;100420.28;5053143;28;20036;-74
2021/06/01 13:32:09;;;;;;;4.47;4.07;;;;;;;25.39;29.33;100396.28;5053952;28;20124;-75
2021/06/01 13:46:37;;;;;;;9.38;3.55;;;;;;;25.36;29.34;100381.47;5051914;28;20119;-76
2021/06/01 13:49:37;;;;;;;5.43;4.00;;;;;;;25.40;29.11;100393.44;5052932;28;20048;-68
2021/06/01 14:30:25;;;;;;;3.42;3.03;;;;;;;25.28;30.20;100368.97;5016083;28;20512;-76
2021/06/01 14:36:02;;;;;;;7.13;3.58;;;;;;;25.22;30.09;100353.63;5048892;28;20175;-77
2021/06/01 14:39:00;;;;;;;6.38;3.20;;;;;;;25.40;30.70;100358.75;5053732;28;20126;-76
2021/06/01 15:09:51;;;;;;;9.27;3.25;;;;;;;25.26;31.20;100354.13;5050042;28;20041;-70
2021/06/01 15:50:08;;;;;;;6.63;3.38;;;;;;;25.15;30.40;100339.31;5051955;28;20045;-69